Time;durP1;ratioP1;P1;durP2;ratioP2;P2;SDS_P1;SDS_P2;PMS_P1;PMS_P2;Temp;Humidity;BMP_temperature;BMP_pressure;BME280_temperature;BME280_humidity;BME280_pressure;Samples;Min_cycle;Max_cycle;Signal;HPM_P1;HPM_P2
2022/01/30 00:02:07;;;;;;;;;;;6.60;99.90;;;;;;4913542;29;20044;-77
2022/01/30 00:04:36;;;;;;;1.60;0.50;;;6.60;99.90;;;;;;4955604;29;20090;-78
2022/01/30 00:07:02;;;;;;;;;;;6.60;99.90;;;;;;4929740;29;20046;-78
2022/01/30 00:09:27;;;;;;;1.52;0.43;;;6.60;99.90;;;;;;4949899;29;19914;-77
2022/01/30 00:11:58;;;;;;;1.90;0.50;;;6.70;99.90;;;;;;4965158;29;20100;-78
2022/01/30 00:14:26;;;;;;;0.93;0.30;;;6.60;99.90;;;;;;4932016;29;20031;-78
2022/01/30 00:16:59;;;;;;;1.20;0.52;;;6.70;99.90;;;;;;4965106;28;20039;-79
2022/01/30 00:19:34;;;;;;;1.15;0.50;;;6.80;99.90;;;;;;4948089;29;20326;-78
2022/01/30 00:22:14;;;;;;;0.88;0.30;;;6.90;99.90;;;;;;4933481;29;20213;-79
2022/01/30 00:27:15;;;;;;;1.38;0.50;;;6.90;99.90;;;;;;4945637;29;20215;-79
2022/01/30 00:29:41;;;;;;;1.20;0.50;;;7.00;99.90;;;;;;4946219;29;20034;-79
2022/01/30 00:32:08;;;;;;;1.33;0.40;;;7.00;99.90;;;;;;4945528;29;20127;-79
2022/01/30 00:34:34;;;;;;;0.93;0.38;;;6.90;99.90;;;;;;4946326;29;20031;-79
2022/01/30 00:37:02;;;;;;;2.42;0.50;;;6.90;99.90;;;;;;4946156;29;20023;-79
2022/01/30 00:39:28;;;;;;;2.47;0.57;;;7.00;99.90;;;;;;4944778;29;20027;-78
2022/01/30 00:41:54;;;;;;;1.50;0.40;;;7.00;99.90;;;;;;4945679;29;20210;-78
2022/01/30 00:44:19;;;;;;;0.98;0.50;;;7.10;99.90;;;;;;4947052;28;20023;-78
2022/01/30 00:46:46;;;;;;;0.95;0.30;;;7.10;99.90;;;;;;4928587;29;20110;-78
2022/01/30 00:49:12;;;;;;;1.05;0.40;;;7.00;99.90;;;;;;4928518;29;20071;-77
2022/01/30 00:51:38;;;;;;;2.58;0.50;;;7.10;99.90;;;;;;4928474;29;20024;-79
2022/01/30 00:54:07;;;;;;;1.10;0.43;;;7.10;99.90;;;;;;4945256;29;20059;-79
2022/01/30 00:56:32;;;;;;;0.88;0.40;;;7.10;99.90;;;;;;4928561;29;20067;-79
2022/01/30 00:58:58;;;;;;;1.88;0.40;;;7.10;99.90;;;;;;4945546;29;20094;-78
2022/01/30 01:01:27;;;;;;;2.60;0.40;;;7.10;99.90;;;;;;4927224;29;20124;-78
2022/01/30 01:03:53;;;;;;;1.20;0.32;;;7.10;99.90;;;;;;4945140;29;20081;-78
2022/01/30 01:06:18;;;;;;;1.27;0.40;;;7.10;99.90;;;;;;4925811;29;20020;-78
2022/01/30 01:08:50;;;;;;;1.10;0.40;;;7.10;99.90;;;;;;4947335;29;20290;-78
2022/01/30 01:24:34;;;;;;;0.98;0.40;;;7.20;99.90;;;;;;4947157;29;20031;-78
2022/01/30 01:27:00;;;;;;;1.95;0.50;;;7.30;99.90;;;;;;4960009;28;20074;-79
2022/01/30 01:29:26;;;;;;;2.30;0.75;;;7.30;99.90;;;;;;4946572;29;20051;-79
2022/01/30 01:31:52;;;;;;;1.77;0.70;;;7.30;99.90;;;;;;4947031;29;20343;-78
2022/01/30 01:36:49;;;;;;;2.13;0.80;;;7.30;99.90;;;;;;4970526;28;20075;-78
2022/01/30 01:39:15;;;;;;;1.77;0.60;;;7.30;99.90;;;;;;4953117;29;20035;-77
2022/01/30 01:41:41;;;;;;;1.63;0.50;;;7.40;99.90;;;;;;4970521;28;20156;-77
2022/01/30 01:44:18;;;;;;;1.15;0.60;;;7.40;99.90;;;;;;4953012;29;20183;-77
2022/01/30 01:46:46;;;;;;;1.85;0.50;;;7.40;99.90;;;;;;4933681;29;20028;-77
2022/01/30 01:49:19;;;;;;;1.50;0.65;;;7.40;99.90;;;;;;4952814;29;20031;-77
2022/01/30 01:51:49;;;;;;;3.25;1.50;;;7.40;99.90;;;;;;4953133;28;20031;-78
2022/01/30 01:54:15;;;;;;;2.50;0.77;;;7.40;99.90;;;;;;4952245;29;20029;-77
2022/01/30 01:56:42;;;;;;;1.55;0.73;;;7.30;99.90;;;;;;4937467;29;20085;-78
2022/01/30 01:59:23;;;;;;;2.20;0.70;;;7.30;99.90;;;;;;4939089;29;20035;-77
2022/01/30 02:02:00;;;;;;;1.60;0.60;;;7.20;99.90;;;;;;4938395;29;20035;-77
2022/01/30 02:04:27;;;;;;;1.55;0.50;;;7.20;99.90;;;;;;4952579;29;20035;-78
2022/01/30 02:07:03;;;;;;;1.80;0.68;;;7.20;99.90;;;;;;4952843;28;20074;-78
2022/01/30 02:09:31;;;;;;;2.28;0.60;;;7.10;99.90;;;;;;4933607;29;20207;-78
2022/01/30 02:11:58;;;;;;;1.92;0.50;;;7.10;99.90;;;;;;4934820;29;20035;-77
2022/01/30 02:14:35;;;;;;;1.67;0.63;;;7.20;99.90;;;;;;4940874;29;20044;-76
2022/01/30 02:25:32;;;;;;;1.70;0.40;;;7.30;99.90;;;;;;4950682;29;20035;-78
2022/01/30 02:28:00;;;;;;;1.55;0.77;;;7.30;99.90;;;;;;4946221;28;20118;-78
2022/01/30 02:30:32;;;;;;;2.58;0.60;;;7.30;99.90;;;;;;4967572;28;20058;-77
2022/01/30 02:32:58;;;;;;;3.38;0.90;;;7.30;99.90;;;;;;4968981;28;20031;-79
2022/01/30 02:35:25;;;;;;;1.13;0.40;;;7.30;99.90;;;;;;4952305;29;20038;-78
2022/01/30 02:37:54;;;;;;;1.40;0.60;;;7.30;99.90;;;;;;4952765;29;20066;-78
2022/01/30 02:40:20;;;;;;;1.33;0.50;;;7.40;99.90;;;;;;4968386;29;20038;-78
2022/01/30 02:42:50;;;;;;;1.38;0.40;;;7.40;99.90;;;;;;4968733;29;20038;-79
2022/01/30 02:45:18;;;;;;;1.17;0.40;;;7.50;99.90;;;;;;4968104;28;20026;-78
2022/01/30 02:48:13;;;;;;;1.40;0.47;;;7.50;99.90;;;;;;4966198;29;20035;-78
2022/01/30 02:50:54;;;;;;;1.30;0.30;;;7.60;99.90;;;;;;4961347;29;20243;-79
2022/01/30 02:53:29;;;;;;;1.40;0.50;;;7.60;99.90;;;;;;4946056;29;20075;-79
2022/01/30 02:55:56;;;;;;;2.85;0.60;;;7.70;99.90;;;;;;4946724;29;20034;-78
2022/01/30 02:58:22;;;;;;;2.50;0.60;;;7.70;99.90;;;;;;4945862;29;20051;-79
2022/01/30 03:00:48;;;;;;;2.92;0.77;;;7.60;99.90;;;;;;4946536;29;20027;-79
2022/01/30 03:03:14;;;;;;;3.13;1.05;;;7.70;99.90;;;;;;4945837;29;20099;-78
2022/01/30 03:05:40;;;;;;;3.30;0.80;;;8.00;99.90;;;;;;4946373;29;20206;-77
2022/01/30 03:08:06;;;;;;;3.17;1.02;;;8.10;99.90;;;;;;4946345;29;20087;-78
2022/01/30 03:10:32;;;;;;;2.03;0.80;;;8.10;99.90;;;;;;4953985;29;20035;-79
2022/01/30 03:12:58;;;;;;;3.03;0.82;;;8.10;99.90;;;;;;4965421;29;20090;-79
2022/01/30 03:15:24;;;;;;;4.18;1.02;;;8.00;99.90;;;;;;4964969;29;20035;-78
2022/01/30 03:17:49;;;;;;;3.03;0.80;;;8.10;99.90;;;;;;4965315;29;20027;-78
2022/01/30 03:20:15;;;;;;;2.75;1.00;;;8.10;99.90;;;;;;4964892;29;20038;-79
2022/01/30 03:22:41;;;;;;;2.97;0.90;;;8.10;99.90;;;;;;4965025;29;20180;-79
2022/01/30 03:25:07;;;;;;;2.35;0.50;;;8.10;99.90;;;;;;4965032;29;20070;-78
2022/01/30 03:27:54;;;;;;;3.15;1.02;;;8.00;99.90;;;;;;4950971;29;20159;-79
2022/01/30 03:30:28;;;;;;;2.53;0.90;;;8.00;99.90;;;;;;4960408;29;20322;-79
2022/01/30 03:33:05;;;;;;;2.10;0.77;;;8.00;99.90;;;;;;4965087;29;20026;-79
2022/01/30 03:35:33;;;;;;;2.90;0.70;;;8.00;99.90;;;;;;4964168;29;20660;-78
2022/01/30 03:38:00;;;;;;;2.83;0.95;;;8.00;99.90;;;;;;4964730;29;20214;-78
2022/01/30 03:40:26;;;;;;;2.72;0.57;;;8.00;99.90;;;;;;4964362;29;20038;-78
2022/01/30 03:42:51;;;;;;;3.58;0.70;;;8.00;99.90;;;;;;4949071;29;20019;-79
2022/01/30 03:45:17;;;;;;;1.50;0.50;;;7.90;99.90;;;;;;4964529;29;20033;-79
2022/01/30 03:47:43;;;;;;;1.70;0.60;;;7.90;99.90;;;;;;4965258;29;20050;-77
2022/01/30 03:50:12;;;;;;;3.65;0.63;;;7.90;99.90;;;;;;4949397;29;20038;-78
2022/01/30 03:52:38;;;;;;;1.90;0.70;;;8.00;99.90;;;;;;4961744;28;20306;-79
2022/01/30 03:55:04;;;;;;;3.63;0.80;;;8.00;99.90;;;;;;4964505;28;20064;-78
2022/01/30 03:57:30;;;;;;;2.80;0.60;;;8.00;99.90;;;;;;4965379;28;20027;-78
2022/01/30 03:59:56;;;;;;;3.25;0.82;;;8.10;99.90;;;;;;4964634;29;20078;-79
2022/01/30 04:02:21;;;;;;;2.92;0.90;;;8.00;99.90;;;;;;4964152;29;20028;-78
2022/01/30 04:04:49;;;;;;;4.28;0.77;;;8.10;99.90;;;;;;4948715;29;20051;-78
2022/01/30 04:07:18;;;;;;;2.50;0.90;;;8.10;99.90;;;;;;4964552;29;20135;-78
2022/01/30 04:09:47;;;;;;;3.45;1.17;;;8.10;99.90;;;;;;4965406;29;20050;-79
2022/01/30 04:12:33;;;;;;;4.55;1.02;;;8.10;99.90;;;;;;4959831;29;20200;-79
2022/01/30 04:15:10;;;;;;;3.55;0.90;;;8.10;99.90;;;;;;4949775;29;20402;-78
2022/01/30 04:18:07;;;;;;;5.88;1.55;;;8.10;99.90;;;;;;4964041;29;20077;-79
2022/01/30 04:20:35;;;;;;;3.05;1.25;;;8.10;99.90;;;;;;4964084;29;20059;-78
2022/01/30 04:23:35;;;;;;;3.70;0.98;;;8.10;99.90;;;;;;4952249;29;20254;-80
2022/01/30 04:26:24;;;;;;;4.00;1.27;;;8.10;99.90;;;;;;4963888;28;20086;-79
2022/01/30 04:29:14;;;;;;;7.70;1.48;;;8.10;99.90;;;;;;4933429;29;20046;-78
2022/01/30 04:32:07;;;;;;;6.63;1.75;;;8.10;99.90;;;;;;4959697;29;20229;-80
2022/01/30 04:34:58;;;;;;;7.15;2.00;;;8.00;99.90;;;;;;4929360;29;20031;-78
2022/01/30 05:10:09;;;;;;;7.53;2.13;;;7.60;99.90;;;;;;4926740;29;20028;-78
2022/01/30 05:12:55;;;;;;;8.98;2.13;;;7.50;99.90;;;;;;4928459;29;20322;-78
2022/01/30 05:15:39;;;;;;;7.10;1.83;;;7.50;99.90;;;;;;4943577;29;20082;-78
2022/01/30 05:18:38;;;;;;;7.85;2.38;;;7.50;99.90;;;;;;4942269;29;20043;-79
2022/01/30 05:21:22;;;;;;;5.50;1.63;;;7.50;99.90;;;;;;4964458;29;20065;-81
2022/01/30 05:24:14;;;;;;;7.85;2.10;;;7.40;99.90;;;;;;4953381;29;20110;-80
2022/01/30 05:26:45;;;;;;;6.03;2.55;;;7.40;99.90;;;;;;4947960;28;20346;-80
2022/01/30 05:29:29;;;;;;;6.30;1.63;;;7.40;99.90;;;;;;4969127;29;20356;-78
2022/01/30 05:32:11;;;;;;;6.82;2.85;;;7.40;99.90;;;;;;4973099;29;20071;-78
2022/01/30 05:34:47;;;;;;;7.90;2.30;;;7.30;99.90;;;;;;4964396;29;20079;-79
2022/01/30 05:37:21;;;;;;;10.13;2.28;;;7.30;99.90;;;;;;4963550;29;20035;-79
2022/01/30 05:40:13;;;;;;;12.15;2.47;;;7.30;99.90;;;;;;4963652;29;20098;-79
2022/01/30 05:42:50;;;;;;;6.38;1.90;;;7.30;99.90;;;;;;4963220;29;20348;-78
2022/01/30 05:46:07;;;;;;;12.63;2.30;;;7.40;99.90;;;;;;4959285;29;20288;-78
2022/01/30 05:48:56;;;;;;;6.78;1.75;;;7.30;99.90;;;;;;4936717;29;20227;-79
2022/01/30 05:51:34;;;;;;;8.48;1.90;;;7.40;99.90;;;;;;4963195;29;20038;-78
2022/01/30 05:54:10;;;;;;;7.97;2.35;;;7.40;99.90;;;;;;4963187;28;20039;-79
2022/01/30 05:56:37;;;;;;;8.35;2.20;;;7.30;99.90;;;;;;4952917;29;20326;-79
2022/01/30 05:59:15;;;;;;;8.35;2.60;;;7.30;99.90;;;;;;4944436;29;20062;-78
2022/01/30 06:02:07;;;;;;;10.50;2.58;;;7.30;99.90;;;;;;4952570;29;20035;-77
2022/01/30 06:04:33;;;;;;;9.00;2.58;;;7.40;99.90;;;;;;4962666;29;20098;-79
2022/01/30 06:07:01;;;;;;;12.52;2.67;;;7.30;99.90;;;;;;4964406;29;20027;-79
2022/01/30 06:09:27;;;;;;;8.13;2.55;;;7.30;99.90;;;;;;4962916;29;20050;-78
2022/01/30 06:11:54;;;;;;;11.48;2.70;;;7.30;99.90;;;;;;4963040;29;20027;-79
2022/01/30 06:14:22;;;;;;;8.17;2.53;;;7.20;99.90;;;;;;4963050;29;20023;-79
2022/01/30 06:16:57;;;;;;;7.43;2.22;;;7.20;99.90;;;;;;4946955;29;20066;-78
2022/01/30 06:19:42;;;;;;;13.70;3.20;;;7.20;99.90;;;;;;4963557;29;20062;-79
2022/01/30 06:22:38;;;;;;;12.07;3.00;;;7.20;99.90;;;;;;4935744;29;20175;-78
2022/01/30 06:25:23;;;;;;;8.93;2.45;;;7.20;99.90;;;;;;4967780;29;20096;-80
2022/01/30 06:28:07;;;;;;;10.48;2.30;;;7.20;99.90;;;;;;4966239;28;20301;-79
2022/01/30 06:30:52;;;;;;;10.02;2.35;;;7.10;99.90;;;;;;4967181;28;20066;-79
2022/01/30 06:33:36;;;;;;;9.88;1.83;;;7.00;99.90;;;;;;4965880;29;20123;-79
2022/01/30 06:36:07;;;;;;;9.73;2.28;;;7.00;99.90;;;;;;4967301;29;20050;-79
2022/01/30 06:38:39;;;;;;;8.73;2.60;;;7.00;99.90;;;;;;4965651;28;20035;-79
2022/01/30 06:41:24;;;;;;;9.35;2.10;;;7.00;99.90;;;;;;4967437;29;20031;-79
2022/01/30 06:44:09;;;;;;;13.43;2.50;;;6.90;99.90;;;;;;4966509;29;20093;-78
2022/01/30 06:46:53;;;;;;;9.63;2.00;;;6.80;99.90;;;;;;4966709;28;20085;-78
2022/01/30 06:49:39;;;;;;;11.15;2.67;;;6.70;99.90;;;;;;4966245;29;20057;-78
2022/01/30 06:52:25;;;;;;;8.27;2.25;;;6.60;99.90;;;;;;4967201;28;20114;-79
2022/01/30 06:55:10;;;;;;;11.20;2.33;;;6.50;99.90;;;;;;4966988;28;20293;-78
2022/01/30 06:57:54;;;;;;;9.18;2.83;;;6.50;99.90;;;;;;4963820;28;20106;-79
2022/01/30 07:00:41;;;;;;;7.25;2.05;;;6.40;99.90;;;;;;4946880;29;20090;-80
2022/01/30 07:03:46;;;;;;;14.73;2.83;;;6.40;99.90;;;;;;4916073;29;20312;-79
2022/01/30 07:06:24;;;;;;;9.48;2.15;;;6.30;99.90;;;;;;4911323;29;20099;-79
2022/01/30 07:08:52;;;;;;;7.45;2.15;;;6.30;99.90;;;;;;4937679;29;20062;-80
2022/01/30 07:11:18;;;;;;;;;;;6.20;99.90;;;;;;4949346;29;20038;-79
2022/01/30 07:13:44;;;;;;;8.68;2.22;;;6.30;99.90;;;;;;4966466;29;19977;-79
2022/01/30 07:16:09;;;;;;;11.32;2.92;;;6.30;99.90;;;;;;4968011;28;20071;-81
2022/01/30 07:18:35;;;;;;;10.75;2.72;;;6.40;99.90;;;;;;4947694;29;20028;-78
2022/01/30 07:21:04;;;;;;;8.15;2.67;;;6.30;99.90;;;;;;4947059;29;20039;-78
2022/01/30 07:23:30;;;;;;;9.65;2.40;;;6.30;99.90;;;;;;4948587;29;20045;-81
2022/01/30 07:25:56;;;;;;;7.05;2.70;;;6.20;99.90;;;;;;4965221;29;20042;-78
2022/01/30 07:28:22;;;;;;;10.10;2.33;;;6.20;99.90;;;;;;4949485;29;20051;-78
2022/01/30 07:30:57;;;;;;;7.82;2.50;;;6.30;99.90;;;;;;4960098;28;20054;-80
2022/01/30 07:33:26;;;;;;;;;;;6.30;99.90;;;;;;4954380;28;20036;-80
2022/01/30 07:35:58;;;;;;;8.68;2.25;;;6.30;99.90;;;;;;4898624;29;20132;-78
2022/01/30 07:38:30;;;;;;;8.77;2.20;;;6.40;99.90;;;;;;4959765;29;20081;-79
2022/01/30 07:40:59;;;;;;;8.93;2.30;;;6.40;99.90;;;;;;4965569;29;20054;-78
2022/01/30 07:43:35;;;;;;;7.95;2.33;;;6.40;99.90;;;;;;4966195;29;20030;-79
2022/01/30 07:46:07;;;;;;;7.90;2.70;;;6.40;99.90;;;;;;4964518;28;20038;-78
2022/01/30 07:48:40;;;;;;;12.20;3.10;;;6.40;99.90;;;;;;4964365;29;20035;-79
2022/01/30 07:51:28;;;;;;;14.82;2.97;;;6.40;99.90;;;;;;4964939;29;20291;-77
2022/01/30 07:54:17;;;;;;;13.48;2.85;;;6.50;99.90;;;;;;4963227;28;20027;-79
2022/01/30 07:56:46;;;;;;;16.42;3.78;;;6.60;99.90;;;;;;4966183;29;20027;-80
2022/01/30 07:59:21;;;;;;;12.20;2.92;;;6.60;99.90;;;;;;4967500;29;20053;-79
2022/01/30 08:06:10;;;;;;;12.43;2.88;;;6.70;99.90;;;;;;4965823;29;20033;-78
2022/01/30 08:08:38;;;;;;;12.15;2.85;;;6.70;99.90;;;;;;4965477;29;20058;-79
2022/01/30 08:11:09;;;;;;;7.30;2.58;;;6.50;99.90;;;;;;4961081;28;20333;-79
2022/01/30 08:14:05;;;;;;;11.02;3.42;;;6.50;99.90;;;;;;4906475;29;20063;-79
2022/01/30 08:16:34;;;;;;;8.43;2.50;;;6.40;99.90;;;;;;4890290;29;20255;-78
2022/01/30 08:19:11;;;;;;;12.50;2.75;;;6.40;99.90;;;;;;4906396;29;20040;-76
2022/01/30 08:22:03;;;;;;;10.88;2.45;;;6.50;99.90;;;;;;4890074;29;20219;-80
2022/01/30 08:24:28;;;;;;;;;;;6.50;99.90;;;;;;4906761;29;20143;-77
2022/01/30 08:26:53;;;;;;;13.25;2.55;;;6.60;99.90;;;;;;4900656;29;19916;-79
2022/01/30 08:29:19;;;;;;;12.70;2.67;;;6.60;99.90;;;;;;4895119;29;20053;-77
2022/01/30 08:31:45;;;;;;;10.52;3.05;;;6.60;99.90;;;;;;4871060;29;20037;-79
2022/01/30 08:34:11;;;;;;;10.10;2.67;;;6.70;99.90;;;;;;4887612;29;20037;-78
2022/01/30 08:36:37;;;;;;;11.00;3.13;;;6.60;99.90;;;;;;4871284;29;20032;-77
2022/01/30 08:39:03;;;;;;;12.73;2.88;;;6.60;99.90;;;;;;4874915;29;20041;-78
2022/01/30 08:41:29;;;;;;;13.50;2.92;;;6.60;99.90;;;;;;4887504;29;20028;-78
2022/01/30 08:43:55;;;;;;;14.80;3.00;;;6.70;99.90;;;;;;4900456;29;20110;-79
2022/01/30 08:46:20;;;;;;;13.65;3.13;;;6.80;99.90;;;;;;4928256;29;20195;-77
2022/01/30 08:48:46;;;;;;;9.32;2.30;;;6.80;99.90;;;;;;4961000;29;20369;-78
2022/01/30 08:51:12;;;;;;;8.55;2.17;;;6.80;99.90;;;;;;4937167;29;20327;-79
2022/01/30 08:53:38;;;;;;;8.60;2.53;;;6.90;99.90;;;;;;4934163;29;20062;-78
2022/01/30 08:56:04;;;;;;;12.52;2.85;;;6.90;99.90;;;;;;4955093;29;20226;-77
2022/01/30 08:58:32;;;;;;;8.60;2.00;;;6.80;99.90;;;;;;4938932;29;20106;-77
2022/01/30 09:00:59;;;;;;;14.88;3.05;;;6.80;99.90;;;;;;4936429;29;20039;-78
2022/01/30 09:03:24;;;;;;;12.50;2.70;;;6.80;99.90;;;;;;4949496;29;20094;-79
2022/01/30 09:05:50;;;;;;;11.23;2.40;;;7.00;99.90;;;;;;4932135;29;20019;-78
2022/01/30 09:08:17;;;;;;;18.33;3.40;;;7.10;99.90;;;;;;4947545;29;20043;-79
2022/01/30 09:10:46;;;;;;;11.88;2.17;;;7.30;99.90;;;;;;4964585;29;20035;-80
2022/01/30 09:13:12;;;;;;;11.43;2.30;;;7.20;99.90;;;;;;4946382;29;20015;-75
2022/01/30 09:15:42;;;;;;;16.92;2.70;;;7.10;99.90;;;;;;4946526;29;20042;-81
2022/01/30 09:18:11;;;;;;;12.90;2.20;;;7.20;99.90;;;;;;4965424;29;20019;-79
2022/01/30 09:20:39;;;;;;;9.60;2.65;;;7.30;99.90;;;;;;4964330;28;20031;-80
2022/01/30 09:23:10;;;;;;;16.52;3.17;;;7.30;99.90;;;;;;4945779;29;20255;-78
2022/01/30 09:25:37;;;;;;;12.35;2.63;;;7.20;99.90;;;;;;4928514;29;20063;-80
2022/01/30 09:28:03;;;;;;;13.50;2.95;;;7.30;99.90;;;;;;4939735;29;20095;-79
2022/01/30 09:30:32;;;;;;;11.75;2.45;;;7.10;99.90;;;;;;4943852;29;20096;-78
2022/01/30 09:33:01;;;;;;;10.00;2.08;;;7.30;99.90;;;;;;4950311;28;20078;-78
2022/01/30 09:35:26;;;;;;;8.70;2.30;;;7.40;99.90;;;;;;4944640;29;20306;-81
2022/01/30 09:37:52;;;;;;;9.43;2.28;;;7.40;99.90;;;;;;4928465;29;20042;-79
2022/01/30 09:40:18;;;;;;;10.82;2.10;;;7.40;99.90;;;;;;4945268;29;20024;-78
2022/01/30 09:42:45;;;;;;;9.18;3.47;;;7.20;99.90;;;;;;4945166;29;20028;-78
2022/01/30 09:45:17;;;;;;;11.60;2.05;;;7.20;99.90;;;;;;4944745;29;20087;-77
2022/01/30 09:47:43;;;;;;;12.65;2.05;;;7.40;99.90;;;;;;4927504;29;20027;-78
2022/01/30 09:50:10;;;;;;;11.07;2.70;;;7.50;99.90;;;;;;4928510;29;20107;-77
2022/01/30 09:52:37;;;;;;;11.90;2.47;;;7.80;99.90;;;;;;4947095;28;20091;-79
2022/01/30 09:55:06;;;;;;;12.45;2.63;;;7.80;99.90;;;;;;4946562;28;20337;-80
2022/01/30 09:57:32;;;;;;;10.23;2.65;;;7.70;99.90;;;;;;4947798;29;20062;-79
2022/01/30 09:59:57;;;;;;;17.80;2.90;;;7.60;99.90;;;;;;4947407;29;20032;-78
2022/01/30 10:02:26;;;;;;;11.50;2.45;;;7.60;99.90;;;;;;4947289;28;20114;-79
2022/01/30 10:04:52;;;;;;;13.32;2.53;;;7.70;99.90;;;;;;4947625;29;20087;-79
2022/01/30 10:07:21;;;;;;;16.20;3.35;;;7.70;99.90;;;;;;4947656;29;20306;-79
2022/01/30 10:09:49;;;;;;;11.15;2.45;;;7.60;99.90;;;;;;4953908;29;20042;-79
2022/01/30 10:12:19;;;;;;;13.98;2.70;;;7.60;99.90;;;;;;4966635;29;20078;-78
2022/01/30 10:15:03;;;;;;;12.55;2.70;;;7.70;99.90;;;;;;4965597;29;20336;-80
2022/01/30 10:17:32;;;;;;;10.15;2.53;;;7.80;99.90;;;;;;4967747;29;20046;-79
2022/01/30 10:20:06;;;;;;;11.57;2.35;;;7.90;99.90;;;;;;4949511;29;20261;-77
2022/01/30 10:22:32;;;;;;;18.60;3.42;;;8.20;99.90;;;;;;4950216;29;20055;-80
2022/01/30 10:24:58;;;;;;;13.10;2.30;;;8.20;99.90;;;;;;4965601;29;20238;-79
2022/01/30 10:27:26;;;;;;;15.38;2.63;;;8.20;99.90;;;;;;4965757;29;20067;-78
2022/01/30 10:30:03;;;;;;;10.15;2.35;;;8.20;99.90;;;;;;4965401;29;20229;-78
2022/01/30 10:32:30;;;;;;;10.82;2.53;;;8.30;99.90;;;;;;4949819;29;20106;-78
2022/01/30 10:35:07;;;;;;;12.30;2.55;;;8.10;99.90;;;;;;4945156;29;20340;-79
2022/01/30 10:37:33;;;;;;;13.00;2.28;;;7.90;99.90;;;;;;4965972;29;20035;-78
2022/01/30 10:40:07;;;;;;;12.02;2.28;;;7.80;99.90;;;;;;4966423;29;20031;-78
2022/01/30 10:42:48;;;;;;;11.70;1.98;;;7.80;99.90;;;;;;4967041;29;20039;-78
2022/01/30 10:45:22;;;;;;;8.93;1.90;;;7.80;99.90;;;;;;4966265;28;20039;-78
2022/01/30 10:47:48;;;;;;;10.00;2.17;;;7.70;99.90;;;;;;4965113;29;20113;-78
2022/01/30 10:50:19;;;;;;;10.65;2.70;;;7.70;99.90;;;;;;4950020;29;20355;-79
2022/01/30 10:53:03;;;;;;;12.68;2.33;;;7.60;99.90;;;;;;4965781;28;20032;-80
2022/01/30 10:55:43;;;;;;;11.13;2.17;;;7.70;99.90;;;;;;4945802;29;20028;-77
2022/01/30 10:58:13;;;;;;;11.30;2.30;;;8.00;99.90;;;;;;4965896;29;20039;-78
2022/01/30 11:00:42;;;;;;;13.63;2.10;;;8.30;99.90;;;;;;4965252;28;20059;-79
2022/01/30 11:03:08;;;;;;;;;;;8.20;99.90;;;;;;4966991;28;20086;-81
2022/01/30 11:06:14;;;;;;;9.75;2.20;;;8.00;99.90;;;;;;4949555;29;19906;-78
2022/01/30 11:08:44;;;;;;;10.50;2.45;;;8.20;99.90;;;;;;4944668;29;20040;-80
2022/01/30 11:13:59;;;;;;;11.43;2.20;;;8.40;99.90;;;;;;4941122;29;20059;-78
2022/01/30 11:19:12;;;;;;;10.35;2.35;;;9.20;99.90;;;;;;4945029;29;20043;-78
2022/01/30 11:21:40;;;;;;;10.65;2.33;;;9.30;99.90;;;;;;4919331;29;20050;-78
2022/01/30 11:24:07;;;;;;;7.72;1.95;;;9.00;99.90;;;;;;4925507;29;20040;-79
2022/01/30 11:26:33;;;;;;;10.95;2.30;;;9.00;99.90;;;;;;4907163;29;20052;-79
2022/01/30 11:28:59;;;;;;;7.88;1.67;;;10.00;99.90;;;;;;4908213;29;20087;-78
2022/01/30 11:31:26;;;;;;;10.52;2.17;;;10.80;99.90;;;;;;4925494;29;20047;-79
2022/01/30 11:33:54;;;;;;;11.75;2.53;;;11.20;99.90;;;;;;4909944;29;20083;-77
2022/01/30 11:36:22;;;;;;;13.85;2.17;;;11.10;99.90;;;;;;4924204;29;20031;-78
2022/01/30 11:38:48;;;;;;;15.68;2.45;;;10.20;99.90;;;;;;4917815;29;20035;-80
2022/01/30 11:41:19;;;;;;;9.93;2.15;;;9.70;99.90;;;;;;4932644;29;20027;-79
2022/01/30 11:44:19;;;;;;;11.18;2.35;;;10.10;99.90;;;;;;4965522;29;20066;-78
2022/01/30 11:46:58;;;;;;;10.60;2.30;;;10.60;99.90;;;;;;4947381;29;20059;-80
2022/01/30 11:49:46;;;;;;;12.02;2.55;;;11.70;99.90;;;;;;4965619;29;20039;-79
2022/01/30 11:52:14;;;;;;;10.90;2.45;;;11.60;99.90;;;;;;4965445;29;20078;-79
2022/01/30 11:54:53;;;;;;;7.95;1.95;;;11.20;99.90;;;;;;4965379;29;20229;-82
2022/01/30 11:57:22;;;;;;;10.88;2.47;;;10.70;99.90;;;;;;4947874;28;20054;-82
2022/01/30 12:00:01;;;;;;;9.55;2.10;;;9.80;99.90;;;;;;4928865;29;20330;-82
2022/01/30 12:02:31;;;;;;;9.02;2.17;;;9.70;99.90;;;;;;4945943;29;20063;-78
2022/01/30 12:05:09;;;;;;;10.05;2.60;;;9.20;99.90;;;;;;4945695;29;20051;-78
2022/01/30 12:07:42;;;;;;;13.07;2.40;;;9.60;99.90;;;;;;4929301;29;20266;-79
2022/01/30 12:10:26;;;;;;;11.50;2.08;;;10.10;99.90;;;;;;4954411;29;20058;-79
2022/01/30 12:12:56;;;;;;;10.15;2.17;;;10.30;99.90;;;;;;4965005;29;20027;-80
2022/01/30 12:15:42;;;;;;;9.15;2.30;;;10.50;99.90;;;;;;4947575;28;20408;-82
2022/01/30 12:18:13;;;;;;;10.45;2.13;;;10.30;99.90;;;;;;4960725;29;20036;-78
2022/01/30 12:20:59;;;;;;;10.95;2.47;;;10.70;99.90;;;;;;4930542;29;20353;-79
2022/01/30 12:23:30;;;;;;;9.63;2.10;;;10.90;99.90;;;;;;4957229;29;20085;-80
2022/01/30 12:26:25;;;;;;;9.82;2.10;;;11.00;99.70;;;;;;4948731;29;20106;-79
2022/01/30 12:28:54;;;;;;;7.95;2.17;;;11.00;99.50;;;;;;4923000;29;20092;-78
2022/01/30 12:31:23;;;;;;;16.35;2.40;;;10.10;99.90;;;;;;4916048;29;20263;-78
2022/01/30 12:34:29;;;;;;;9.90;2.42;;;9.40;99.90;;;;;;4928730;29;20034;-79
2022/01/30 12:36:55;;;;;;;9.73;2.20;;;9.40;99.90;;;;;;4881757;29;20087;-80
2022/01/30 12:39:23;;;;;;;13.27;2.53;;;9.40;99.90;;;;;;4954400;29;20034;-80
2022/01/30 12:41:52;;;;;;;7.78;1.90;;;9.10;99.90;;;;;;4931734;29;20044;-78
2022/01/30 12:44:20;;;;;;;11.85;2.13;;;9.30;99.90;;;;;;4947573;29;20199;-81
2022/01/30 12:46:53;;;;;;;8.90;2.22;;;10.00;99.90;;;;;;4931251;29;20106;-79
2022/01/30 12:49:32;;;;;;;10.10;2.00;;;10.40;99.90;;;;;;4947778;29;20238;-79
2022/01/30 12:52:01;;;;;;;10.60;2.50;;;10.90;99.10;;;;;;4923920;29;20345;-77
2022/01/30 12:54:37;;;;;;;9.23;1.90;;;10.10;99.10;;;;;;4924417;29;20036;-79
2022/01/30 12:57:05;;;;;;;8.60;2.28;;;10.50;99.10;;;;;;4908373;29;20039;-78
2022/01/30 12:59:30;;;;;;;11.90;2.10;;;11.40;97.70;;;;;;4908532;29;20031;-78
2022/01/30 13:02:09;;;;;;;9.30;1.80;;;12.70;96.70;;;;;;4923420;29;20132;-80
2022/01/30 13:04:37;;;;;;;8.63;1.90;;;13.80;95.10;;;;;;4908611;29;20043;-79
2022/01/30 13:07:03;;;;;;;9.23;2.22;;;13.50;95.40;;;;;;4924085;29;20032;-79
2022/01/30 13:09:31;;;;;;;7.95;1.88;;;14.20;94.50;;;;;;4905106;29;20028;-79
2022/01/30 13:11:59;;;;;;;7.63;2.03;;;14.10;94.20;;;;;;4907989;29;20080;-79
2022/01/30 13:14:41;;;;;;;7.53;1.92;;;13.60;94.00;;;;;;4907844;29;20386;-80
2022/01/30 13:17:08;;;;;;;12.82;2.25;;;11.90;96.00;;;;;;4923093;29;20044;-79
2022/01/30 13:19:36;;;;;;;7.97;1.92;;;11.20;96.70;;;;;;4892668;29;20096;-79
2022/01/30 13:22:08;;;;;;;7.97;1.63;;;11.10;96.50;;;;;;4923082;29;20311;-78
2022/01/30 13:24:35;;;;;;;6.90;2.00;;;11.20;96.00;;;;;;4927907;29;20319;-79
2022/01/30 13:27:03;;;;;;;8.40;1.90;;;11.20;95.80;;;;;;4930357;29;20070;-80
2022/01/30 13:29:36;;;;;;;8.35;2.10;;;10.60;96.70;;;;;;4953031;29;20031;-78
2022/01/30 13:32:11;;;;;;;9.73;1.88;;;9.90;97.80;;;;;;4945850;28;20043;-80
2022/01/30 13:34:41;;;;;;;10.80;1.95;;;9.40;98.30;;;;;;4963386;29;20023;-78
2022/01/30 13:37:15;;;;;;;11.07;2.17;;;9.20;98.90;;;;;;4946654;29;20023;-77
2022/01/30 13:39:52;;;;;;;9.50;1.73;;;9.00;99.10;;;;;;4946961;29;20078;-77
2022/01/30 13:45:05;;;;;;;11.02;2.40;;;9.10;99.40;;;;;;4962812;28;20317;-78
2022/01/30 13:47:32;;;;;;;8.73;1.85;;;9.60;99.30;;;;;;4943588;29;20043;-77
2022/01/30 13:49:58;;;;;;;9.10;1.60;;;10.20;98.90;;;;;;4943505;29;20020;-79
2022/01/30 13:52:31;;;;;;;10.05;2.17;;;10.80;97.70;;;;;;4943743;29;20191;-78
2022/01/30 13:54:59;;;;;;;8.32;2.00;;;10.60;98.20;;;;;;4944229;29;20103;-78
2022/01/30 13:57:33;;;;;;;6.10;1.65;;;11.30;97.70;;;;;;4959423;29;20031;-82
2022/01/30 14:00:22;;;;;;;8.73;2.13;;;11.20;96.60;;;;;;4944641;29;20358;-79
2022/01/30 14:03:03;;;;;;;8.10;1.65;;;11.30;96.00;;;;;;4935676;29;20229;-80
2022/01/30 14:05:41;;;;;;;8.25;2.20;;;11.00;96.40;;;;;;4944589;29;20079;-79
2022/01/30 14:08:12;;;;;;;9.85;1.80;;;10.30;96.70;;;;;;4945426;29;20039;-79
2022/01/30 14:10:39;;;;;;;9.40;2.20;;;10.30;97.50;;;;;;4957206;29;20031;-81
2022/01/30 14:13:08;;;;;;;7.57;2.17;;;10.10;96.90;;;;;;4963216;29;20058;-79
2022/01/30 14:15:36;;;;;;;10.50;1.85;;;9.90;97.00;;;;;;4962918;28;20102;-81
2022/01/30 14:18:07;;;;;;;9.60;2.70;;;10.00;97.10;;;;;;4962564;29;20107;-80
2022/01/30 14:20:33;;;;;;;12.23;2.28;;;10.80;96.30;;;;;;4962457;29;20233;-80
2022/01/30 14:23:08;;;;;;;8.38;1.90;;;11.50;95.60;;;;;;4961985;29;20097;-79
2022/01/30 14:25:35;;;;;;;5.72;1.60;;;12.00;95.00;;;;;;4963822;28;20023;-79
2022/01/30 14:28:01;;;;;;;10.27;2.00;;;12.10;94.20;;;;;;4961892;28;20039;-77
2022/01/30 14:30:39;;;;;;;6.05;1.60;;;11.70;94.50;;;;;;4962869;28;20062;-78
2022/01/30 14:33:05;;;;;;;6.93;1.80;;;11.70;94.70;;;;;;4962044;29;20074;-79